sim
Sign-in with your pilot id or email,
or register
Callsign
Passwort

Schedule Details

Flight Number: EWG1738 (1)
Departure: Munich Airport (EDDM) at 11:45
Arrival: Split Airport (LDSP) at 13:05
Route: Eurowings Passenger Schedule. Enter filed route here before submitting Pirep.

Weather Information
Getting current METAR information for EDDM 202120Z VRB01KT CAVOK 11/10 Q1016 NOSIG
Getting current METAR information for LDSP 202100Z 25003KT 220V330 CAVOK 21/15 Q1015 NOSIG

Schedule Frequency

Route Map